createdAt,value
2018-10-11T00:01:56.274Z,17.60
2018-10-11T00:04:26.536Z,17.72
2018-10-11T00:06:56.817Z,17.66
2018-10-11T00:09:27.384Z,17.77
2018-10-11T00:11:57.918Z,17.56
2018-10-11T00:14:28.432Z,17.55
2018-10-11T00:16:58.980Z,17.50
2018-10-11T00:19:29.506Z,17.69
2018-10-11T00:22:00.321Z,17.57
2018-10-11T00:24:30.671Z,17.32
2018-10-11T00:27:01.529Z,17.58
2018-10-11T00:29:32.066Z,17.72
2018-10-11T00:32:02.617Z,17.65
2018-10-11T00:34:32.893Z,17.75
2018-10-11T00:37:03.803Z,17.67
2018-10-11T00:39:34.757Z,17.73
2018-10-11T00:42:05.303Z,17.82
2018-10-11T00:44:35.884Z,17.85
2018-10-11T00:47:06.770Z,17.63
2018-10-11T00:49:37.399Z,17.80
2018-10-11T00:52:08.163Z,17.62
2018-10-11T00:54:38.675Z,17.45
2018-10-11T00:57:09.224Z,17.64
2018-10-11T00:59:39.775Z,17.84
2018-10-11T01:02:10.352Z,17.88
2018-10-11T01:04:40.736Z,17.76
2018-10-11T01:07:10.969Z,17.54
2018-10-11T01:09:41.274Z,17.58
2018-10-11T01:12:11.523Z,17.65
2018-10-11T01:14:41.780Z,17.74
2018-10-11T01:17:12.036Z,17.86
2018-10-11T01:19:42.330Z,17.86
2018-10-11T01:22:12.598Z,17.85
2018-10-11T01:24:43.158Z,17.68
2018-10-11T01:27:13.710Z,17.49
2018-10-11T01:29:44.357Z,17.64
2018-10-11T01:32:15.038Z,17.69
2018-10-11T01:34:45.730Z,17.69
2018-10-11T01:37:16.265Z,17.45
2018-10-11T01:39:47.261Z,17.12
2018-10-11T01:42:17.562Z,16.94
2018-10-11T01:44:48.134Z,16.81
2018-10-11T01:47:18.706Z,16.85
2018-10-11T01:49:49.324Z,17.13
2018-10-11T01:52:19.887Z,17.41
2018-10-11T01:54:50.450Z,17.22
2018-10-11T01:57:21.009Z,17.33
2018-10-11T01:59:51.355Z,17.12
2018-10-11T02:02:21.892Z,17.01
2018-10-11T02:04:52.141Z,16.51
2018-10-11T02:07:22.408Z,16.65
2018-10-11T02:09:52.968Z,16.50
2018-10-11T02:12:23.526Z,16.52
2018-10-11T02:14:54.153Z,16.19
2018-10-11T02:17:25.665Z,16.25
2018-10-11T02:19:56.318Z,16.72
2018-10-11T02:22:31.625Z,16.61
2018-10-11T02:25:02.186Z,16.41
2018-10-11T02:27:32.448Z,16.00
2018-10-11T02:30:02.969Z,15.54
2018-10-11T02:32:33.569Z,15.94
2018-10-11T02:35:04.144Z,16.07
2018-10-11T02:37:34.394Z,16.35
2018-10-11T02:40:05.045Z,16.50
2018-10-11T02:42:35.432Z,16.65
2018-10-11T02:45:06.196Z,16.82
2018-10-11T02:47:36.798Z,16.54
2018-10-11T02:50:07.763Z,15.73
2018-10-11T02:52:38.276Z,15.37
2018-10-11T02:55:08.834Z,16.10
2018-10-11T02:57:50.396Z,16.16
2018-10-11T03:00:21.302Z,16.41
2018-10-11T03:02:51.623Z,16.07
2018-10-11T03:05:21.942Z,14.89
2018-10-11T03:07:52.510Z,14.87
2018-10-11T03:10:23.266Z,14.50
2018-10-11T03:12:53.820Z,14.53
2018-10-11T03:15:24.499Z,14.11
2018-10-11T03:17:55.119Z,14.02
2018-10-11T03:20:25.409Z,14.57
2018-10-11T03:22:55.960Z,13.72
2018-10-11T03:25:26.308Z,13.20
2018-10-11T03:27:56.860Z,13.32
2018-10-11T03:30:27.415Z,12.92
2018-10-11T03:32:57.953Z,12.51
2018-10-11T03:35:28.490Z,12.68
2018-10-11T03:37:59.073Z,12.73
2018-10-11T03:40:29.669Z,13.02
2018-10-11T03:43:00.285Z,13.83
2018-10-11T03:45:30.856Z,13.90
2018-10-11T03:48:01.117Z,14.59
2018-10-11T03:50:32.354Z,14.97
2018-10-11T03:53:02.889Z,14.91
2018-10-11T03:55:33.529Z,14.20
2018-10-11T03:58:04.040Z,14.34
2018-10-11T04:00:36.872Z,14.01
2018-10-11T04:03:08.080Z,13.65
2018-10-11T04:05:38.412Z,14.00
2018-10-11T04:08:08.829Z,13.91
2018-10-11T04:10:39.434Z,14.40
2018-10-11T04:13:14.208Z,14.93
2018-10-11T04:15:44.813Z,15.18
2018-10-11T04:18:15.224Z,15.49
2018-10-11T04:20:45.481Z,15.03
2018-10-11T04:23:20.208Z,14.82
2018-10-11T04:25:50.745Z,14.65
2018-10-11T04:28:20.976Z,14.44
2018-10-11T04:30:52.109Z,14.37
2018-10-11T04:33:22.640Z,14.37
2018-10-11T04:35:54.451Z,14.52
2018-10-11T04:38:25.628Z,14.69
2018-10-11T04:40:57.784Z,14.79
2018-10-11T04:43:30.828Z,14.69
2018-10-11T04:46:03.097Z,14.50
2018-10-11T04:48:34.325Z,14.47
2018-10-11T04:51:05.253Z,14.52
2018-10-11T04:53:35.557Z,14.35
2018-10-11T04:56:06.240Z,14.39
2018-10-11T04:58:36.765Z,14.40
2018-10-11T05:01:07.748Z,14.20
2018-10-11T05:03:38.308Z,14.22
2018-10-11T05:06:08.576Z,14.33
2018-10-11T05:08:39.164Z,14.24
2018-10-11T05:11:10.909Z,14.14
2018-10-11T05:13:45.229Z,13.76
2018-10-11T05:16:16.624Z,14.04
2018-10-11T05:18:49.548Z,13.93
2018-10-11T05:21:20.337Z,13.96
2018-10-11T05:23:51.137Z,13.95
2018-10-11T05:26:21.435Z,14.06
2018-10-11T05:28:52.117Z,14.01
2018-10-11T05:31:22.724Z,13.91
2018-10-11T05:33:54.023Z,13.87
2018-10-11T05:36:24.571Z,13.81
2018-10-11T05:38:54.826Z,13.98
2018-10-11T05:41:31.937Z,14.05
2018-10-11T05:44:18.281Z,14.09
2018-10-11T05:46:49.119Z,14.31
2018-10-11T05:49:20.055Z,14.53
2018-10-11T05:51:51.049Z,14.41
2018-10-11T05:54:21.881Z,14.60
2018-10-11T05:56:52.495Z,14.66
2018-10-11T05:59:22.792Z,14.61
2018-10-11T06:01:53.560Z,14.67
2018-10-11T06:04:24.059Z,14.95
2018-10-11T06:06:54.703Z,14.91
2018-10-11T06:09:25.497Z,15.12
2018-10-11T06:11:56.698Z,15.25
2018-10-11T06:14:27.642Z,15.54
2018-10-11T06:16:58.208Z,15.52
2018-10-11T06:19:28.784Z,14.70
2018-10-11T06:21:59.569Z,15.08
2018-10-11T06:24:29.954Z,15.34
2018-10-11T06:27:00.485Z,13.74
2018-10-11T06:29:31.157Z,15.51
2018-10-11T06:32:02.020Z,15.51
2018-10-11T06:34:32.296Z,15.66
2018-10-11T06:37:03.838Z,15.84
2018-10-11T06:39:34.391Z,16.24
2018-10-11T06:42:04.967Z,15.37
2018-10-11T06:44:35.432Z,15.13
2018-10-11T06:47:06.842Z,16.06
2018-10-11T06:49:37.405Z,16.38
2018-10-11T06:52:07.984Z,16.29
2018-10-11T06:54:38.706Z,16.09
2018-10-11T06:57:09.290Z,16.23
2018-10-11T06:59:40.153Z,16.94
2018-10-11T07:02:10.672Z,16.81
2018-10-11T07:04:41.222Z,17.02
2018-10-11T07:07:12.053Z,16.84
2018-10-11T07:09:42.877Z,16.76
2018-10-11T07:12:13.462Z,16.89
2018-10-11T07:14:44.036Z,16.97
2018-10-11T07:17:15.003Z,16.85
2018-10-11T07:19:45.874Z,16.68
2018-10-11T07:22:16.399Z,16.83
2018-10-11T07:24:46.951Z,17.02
2018-10-11T07:27:17.509Z,17.20
2018-10-11T07:29:48.349Z,17.23
2018-10-11T07:32:19.181Z,17.42
2018-10-11T07:34:50.163Z,17.68
2018-10-11T07:37:20.757Z,17.74
2018-10-11T07:39:51.052Z,17.85
2018-10-11T07:42:21.573Z,17.63
2018-10-11T07:44:51.971Z,17.97
2018-10-11T07:47:22.528Z,18.02
2018-10-11T07:49:53.078Z,18.01
2018-10-11T07:52:23.718Z,18.38
2018-10-11T07:54:53.981Z,18.54
2018-10-11T07:57:25.393Z,18.32
2018-10-11T07:59:55.615Z,18.19
2018-10-11T08:02:26.124Z,18.38
2018-10-11T08:04:56.369Z,18.81
2018-10-11T08:07:26.697Z,18.98
2018-10-11T08:09:57.420Z,18.63
2018-10-11T08:12:27.966Z,18.28
2018-10-11T08:14:58.517Z,17.58
2018-10-11T08:17:29.446Z,18.05
2018-10-11T08:19:59.672Z,17.51
2018-10-11T08:22:30.424Z,18.00
2018-10-11T08:25:00.848Z,18.65
2018-10-11T08:27:31.216Z,18.46
2018-10-11T08:30:01.843Z,18.35
2018-10-11T08:32:33.110Z,19.25
2018-10-11T08:35:03.748Z,20.02
2018-10-11T08:37:34.512Z,20.64
2018-10-11T08:40:05.816Z,20.43
2018-10-11T08:42:36.027Z,19.77
2018-10-11T08:45:07.412Z,20.13
2018-10-11T08:47:38.260Z,20.99
2018-10-11T08:50:08.790Z,20.72
2018-10-11T08:52:39.510Z,21.37
2018-10-11T08:55:10.033Z,21.58
2018-10-11T08:57:40.324Z,21.61
2018-10-11T09:00:11.036Z,21.53
2018-10-11T09:02:42.216Z,21.83
2018-10-11T09:05:15.383Z,23.33
2018-10-11T09:07:46.049Z,26.03
2018-10-11T09:10:16.322Z,30.21
2018-10-11T09:12:46.859Z,31.73
2018-10-11T09:15:17.752Z,33.23
2018-10-11T09:17:48.603Z,33.29
2018-10-11T09:20:19.336Z,32.88
2018-10-11T09:22:49.918Z,33.99
2018-10-11T09:25:24.106Z,33.14
2018-10-11T09:27:54.644Z,30.36
2018-10-11T09:30:25.581Z,31.95
2018-10-11T09:32:56.329Z,32.99
2018-10-11T09:35:27.118Z,31.21
2018-10-11T09:37:57.650Z,30.13
2018-10-11T09:40:28.767Z,31.52
2018-10-11T09:42:59.342Z,33.87
2018-10-11T09:45:31.681Z,34.96
2018-10-11T09:48:02.242Z,35.53
2018-10-11T09:50:32.503Z,36.17
2018-10-11T09:53:03.625Z,34.37
2018-10-11T09:55:34.299Z,32.36
2018-10-11T09:58:04.957Z,32.23
2018-10-11T10:00:40.998Z,33.71
2018-10-11T10:03:12.171Z,33.02
2018-10-11T10:05:42.684Z,29.75
2018-10-11T10:08:13.446Z,31.84
2018-10-11T10:10:43.756Z,29.85
2018-10-11T10:13:16.871Z,31.18
2018-10-11T10:15:47.282Z,30.87
2018-10-11T10:18:17.841Z,32.80
2018-10-11T10:20:50.106Z,32.03
2018-10-11T10:23:20.686Z,33.45
2018-10-11T10:25:51.559Z,34.25
2018-10-11T10:28:22.069Z,34.07
2018-10-11T10:30:54.903Z,31.37
2018-10-11T10:33:26.149Z,31.64
2018-10-11T10:35:56.932Z,31.57
2018-10-11T10:38:28.145Z,29.13
2018-10-11T10:40:58.801Z,27.60
2018-10-11T10:43:29.590Z,26.58
2018-10-11T10:46:00.114Z,26.31
2018-10-11T10:48:30.363Z,26.44
2018-10-11T10:51:01.227Z,26.31
2018-10-11T10:53:31.770Z,26.60
2018-10-11T10:56:02.305Z,26.40
2018-10-11T10:58:32.629Z,26.62
2018-10-11T11:01:03.141Z,26.12
2018-10-11T11:03:33.797Z,26.41
2018-10-11T11:06:04.323Z,26.33
2018-10-11T11:08:35.113Z,26.67
2018-10-11T11:11:06.113Z,26.88
2018-10-11T11:13:36.997Z,26.92
2018-10-11T11:16:08.533Z,26.82
2018-10-11T11:18:40.193Z,26.55
2018-10-11T11:21:11.822Z,26.50
2018-10-11T11:23:42.460Z,26.85
2018-10-11T11:26:12.995Z,26.69
2018-10-11T11:28:43.577Z,26.74
2018-10-11T11:31:15.125Z,27.11
2018-10-11T11:33:46.513Z,27.31
2018-10-11T11:36:17.401Z,27.06
2018-10-11T11:38:47.704Z,27.01
2018-10-11T11:41:18.537Z,26.67
2018-10-11T11:43:49.113Z,26.83
2018-10-11T11:46:19.832Z,26.66
2018-10-11T11:48:50.533Z,26.90
2018-10-11T11:51:21.094Z,26.53
2018-10-11T11:53:51.755Z,26.50
2018-10-11T11:56:22.331Z,26.84
2018-10-11T11:58:53.131Z,26.65
2018-10-11T12:01:23.487Z,26.47
2018-10-11T12:03:54.017Z,26.79
2018-10-11T12:06:25.266Z,26.50
2018-10-11T12:08:55.902Z,26.70
2018-10-11T12:11:26.478Z,26.68
2018-10-11T12:13:57.168Z,26.58
2018-10-11T12:16:27.536Z,26.62
2018-10-11T12:19:02.246Z,26.49
2018-10-11T12:21:33.405Z,26.59
2018-10-11T12:24:03.748Z,26.77
2018-10-11T12:26:34.501Z,26.68
2018-10-11T12:29:05.362Z,26.85
2018-10-11T12:31:36.120Z,27.09
2018-10-11T12:34:07.009Z,27.38
2018-10-11T12:36:37.853Z,26.97
2018-10-11T12:39:09.856Z,26.74
2018-10-11T12:41:40.439Z,26.89
2018-10-11T12:44:10.985Z,26.65
2018-10-11T12:46:41.989Z,26.55
2018-10-11T12:49:15.129Z,27.56
2018-10-11T12:51:45.650Z,27.33
2018-10-11T12:54:16.499Z,26.75
2018-10-11T12:56:47.224Z,26.83
2018-10-11T12:59:17.717Z,27.19
2018-10-11T13:01:48.315Z,27.43
2018-10-11T13:04:18.824Z,27.14
2018-10-11T13:06:49.396Z,27.29
2018-10-11T13:09:19.750Z,27.08
2018-10-11T13:11:50.487Z,26.90
2018-10-11T13:14:21.321Z,26.46
2018-10-11T13:16:51.784Z,27.10
2018-10-11T13:19:22.361Z,25.80
2018-10-11T13:21:52.892Z,25.56
2018-10-11T13:24:23.716Z,25.77
2018-10-11T13:26:54.514Z,26.06
2018-10-11T13:29:25.001Z,26.02
2018-10-11T13:31:55.579Z,26.18
2018-10-11T13:34:26.159Z,26.58
2018-10-11T13:36:56.683Z,26.71
2018-10-11T13:39:27.714Z,27.01
2018-10-11T13:41:58.309Z,26.85
2018-10-11T13:44:29.043Z,26.20
2018-10-11T13:46:59.596Z,26.31
2018-10-11T13:49:30.009Z,26.65
2018-10-11T13:52:00.636Z,26.57
2018-10-11T13:54:30.859Z,26.75
2018-10-11T13:57:02.894Z,26.45
2018-10-11T13:59:32.429Z,26.17
2018-10-11T14:02:02.936Z,26.49
2018-10-11T14:04:33.335Z,27.09
2018-10-11T14:07:04.053Z,27.14
2018-10-11T14:09:34.645Z,26.24
2018-10-11T14:12:05.217Z,26.20
2018-10-11T14:14:35.903Z,26.15
2018-10-11T14:17:06.159Z,26.02
2018-10-11T14:19:36.675Z,25.96
2018-10-11T14:22:07.307Z,25.66
2018-10-11T14:24:37.565Z,25.55
2018-10-11T14:27:08.260Z,25.61
2018-10-11T14:29:39.101Z,25.67
2018-10-11T14:32:09.507Z,25.04
2018-10-11T14:34:40.152Z,25.24
2018-10-11T14:37:11.885Z,25.22
2018-10-11T14:39:42.405Z,25.31
2018-10-11T14:42:12.861Z,25.20
2018-10-11T14:44:43.593Z,25.20
2018-10-11T14:47:14.569Z,25.17
2018-10-11T14:49:46.479Z,25.01
2018-10-11T14:52:17.230Z,24.98
2018-10-11T14:54:47.778Z,25.05
2018-10-11T14:57:18.358Z,25.03
2018-10-11T14:59:48.811Z,24.65
2018-10-11T15:02:19.681Z,24.66
2018-10-11T15:04:50.099Z,24.80
2018-10-11T15:07:21.001Z,24.57
2018-10-11T15:09:51.531Z,24.46
2018-10-11T15:12:21.974Z,24.32
2018-10-11T15:14:52.773Z,24.14
2018-10-11T15:17:23.427Z,24.04
2018-10-11T15:19:54.288Z,24.06
2018-10-11T15:22:24.972Z,23.91
2018-10-11T15:24:55.574Z,24.06
2018-10-11T15:27:25.831Z,24.11
2018-10-11T15:29:56.554Z,24.00
2018-10-11T15:32:27.278Z,23.95
2018-10-11T15:34:58.132Z,23.75
2018-10-11T15:37:28.910Z,23.68
2018-10-11T15:39:59.620Z,23.54
2018-10-11T15:42:30.200Z,23.65
2018-10-11T15:45:01.357Z,23.61
2018-10-11T15:47:31.920Z,23.51
2018-10-11T15:50:02.479Z,23.57
2018-10-11T15:52:33.163Z,23.47
2018-10-11T15:55:03.879Z,23.44
2018-10-11T15:57:34.452Z,23.33
2018-10-11T16:00:05.775Z,23.19
2018-10-11T16:02:36.436Z,22.85
2018-10-11T16:05:06.745Z,22.84
2018-10-11T16:07:37.581Z,22.79
2018-10-11T16:10:08.292Z,22.83
2018-10-11T16:12:39.214Z,22.87
2018-10-11T16:15:09.725Z,22.63
2018-10-11T16:17:39.971Z,22.55
2018-10-11T16:20:10.474Z,22.36
2018-10-11T16:22:41.048Z,22.45
2018-10-11T16:25:11.739Z,22.28
2018-10-11T16:27:42.293Z,22.38
2018-10-11T16:30:12.537Z,22.47
2018-10-11T16:32:43.137Z,22.26
2018-10-11T16:35:13.684Z,22.21
2018-10-11T16:37:44.217Z,22.36
2018-10-11T16:40:14.746Z,22.11
2018-10-11T16:42:45.287Z,22.06
2018-10-11T16:45:16.277Z,22.16
2018-10-11T16:47:46.848Z,22.24
2018-10-11T16:50:17.423Z,22.21
2018-10-11T16:52:48.820Z,22.18
2018-10-11T16:55:19.241Z,22.31
2018-10-11T16:57:49.847Z,22.23
2018-10-11T17:00:20.315Z,22.21
2018-10-11T17:02:50.858Z,22.15
2018-10-11T17:05:21.212Z,22.01
2018-10-11T17:07:52.057Z,21.89
2018-10-11T17:10:22.821Z,21.79
2018-10-11T17:12:53.758Z,21.57
2018-10-11T17:15:24.549Z,21.68
2018-10-11T17:17:54.798Z,21.61
2018-10-11T17:20:25.424Z,21.60
2018-10-11T17:22:56.063Z,21.65
2018-10-11T17:25:26.638Z,21.34
2018-10-11T17:27:57.476Z,21.29
2018-10-11T17:30:28.341Z,20.93
2018-10-11T17:32:59.134Z,20.80
2018-10-11T17:35:32.646Z,20.57
2018-10-11T17:38:03.206Z,20.53
2018-10-11T17:40:33.749Z,20.44
2018-10-11T17:43:04.309Z,20.72
2018-10-11T17:45:34.844Z,20.74
2018-10-11T17:48:05.436Z,20.83
2018-10-11T17:50:36.602Z,20.77
2018-10-11T17:53:07.245Z,20.79
2018-10-11T17:55:37.552Z,20.48
2018-10-11T17:58:07.978Z,20.71
2018-10-11T18:00:38.967Z,20.32
2018-10-11T18:03:09.620Z,19.92
2018-10-11T18:05:40.764Z,19.81
2018-10-11T18:08:11.331Z,19.90
2018-10-11T18:10:42.237Z,19.85
2018-10-11T18:13:12.835Z,19.75
2018-10-11T18:15:43.425Z,19.76
2018-10-11T18:18:14.464Z,19.59
2018-10-11T18:20:45.725Z,19.43
2018-10-11T18:23:16.037Z,18.05
2018-10-11T18:25:46.672Z,19.56
2018-10-11T18:28:17.301Z,19.58
2018-10-11T18:30:47.968Z,19.60
2018-10-11T18:33:18.989Z,19.90
2018-10-11T18:35:49.357Z,20.27
2018-10-11T18:38:19.805Z,20.19
2018-10-11T18:40:50.191Z,19.66
2018-10-11T18:43:20.868Z,19.84
2018-10-11T18:45:51.534Z,20.03
2018-10-11T18:48:22.133Z,20.09
2018-10-11T18:50:52.892Z,19.70
2018-10-11T18:53:23.619Z,19.89
2018-10-11T18:55:54.299Z,19.34
2018-10-11T18:58:24.813Z,19.19
2018-10-11T19:00:55.379Z,18.98
2018-10-11T19:03:26.065Z,19.02
2018-10-11T19:05:56.593Z,18.88
2018-10-11T19:08:27.489Z,18.91
2018-10-11T19:10:58.348Z,18.81
2018-10-11T19:13:29.255Z,18.73
2018-10-11T19:16:00.154Z,18.73
2018-10-11T19:18:30.977Z,18.49
2018-10-11T19:21:01.288Z,18.51
2018-10-11T19:23:31.797Z,18.70
2018-10-11T19:26:02.117Z,18.86
2018-10-11T19:28:32.676Z,19.12
2018-10-11T19:31:03.058Z,19.32
2018-10-11T19:33:33.792Z,19.50
2018-10-11T19:36:04.592Z,19.58
2018-10-11T19:38:35.168Z,19.41
2018-10-11T19:41:05.808Z,19.38
2018-10-11T19:43:36.522Z,19.36
2018-10-11T19:46:07.344Z,19.54
2018-10-11T19:48:37.692Z,19.53
2018-10-11T19:51:08.565Z,19.33
2018-10-11T19:53:39.139Z,19.22
2018-10-11T19:56:09.780Z,19.05
2018-10-11T19:58:40.747Z,18.79
2018-10-11T20:01:11.964Z,18.87
2018-10-11T20:03:42.581Z,18.75
2018-10-11T20:06:13.140Z,18.93
2018-10-11T20:08:43.857Z,19.26
2018-10-11T20:11:14.571Z,19.02
2018-10-11T20:13:44.831Z,19.34
2018-10-11T20:16:15.048Z,19.52
2018-10-11T20:18:45.581Z,19.28
2018-10-11T20:21:16.091Z,19.11
2018-10-11T20:23:46.810Z,19.00
2018-10-11T20:26:17.050Z,19.16
2018-10-11T20:28:47.301Z,19.18
2018-10-11T20:31:18.098Z,19.11
2018-10-11T20:33:48.938Z,18.93
2018-10-11T20:36:19.627Z,18.97
2018-10-11T20:38:50.312Z,18.80
2018-10-11T20:41:20.641Z,18.75
2018-10-11T20:43:51.325Z,17.85
2018-10-11T20:46:22.054Z,18.67
2018-10-11T20:48:53.505Z,18.48
2018-10-11T20:51:24.100Z,18.54
2018-10-11T20:53:54.532Z,18.59
2018-10-11T20:56:25.264Z,18.53
2018-10-11T20:58:56.226Z,18.38
2018-10-11T21:01:26.770Z,18.67
2018-10-11T21:03:57.318Z,18.64
2018-10-11T21:06:28.539Z,18.70
2018-10-11T21:08:58.806Z,18.63
2018-10-11T21:11:30.357Z,18.05
2018-10-11T21:14:00.989Z,18.16
2018-10-11T21:16:31.613Z,18.21
2018-10-11T21:19:02.016Z,18.53
2018-10-11T21:21:33.181Z,18.53
2018-10-11T21:24:04.118Z,18.44
2018-10-11T21:26:34.636Z,18.46
2018-10-11T21:29:05.212Z,18.58
2018-10-11T21:31:35.761Z,18.51
2018-10-11T21:34:06.451Z,18.43
2018-10-11T21:36:37.166Z,18.36
2018-10-11T21:39:10.204Z,18.16
2018-10-11T21:41:41.278Z,18.28
2018-10-11T21:44:12.859Z,18.08
2018-10-11T21:46:43.450Z,17.93
2018-10-11T21:49:13.876Z,17.90
2018-10-11T21:51:44.573Z,17.61
2018-10-11T21:54:15.160Z,17.52
2018-10-11T21:56:45.691Z,17.57
2018-10-11T21:59:16.009Z,17.34
2018-10-11T22:01:46.506Z,17.41
2018-10-11T22:04:16.739Z,17.40
2018-10-11T22:06:47.005Z,17.27
2018-10-11T22:09:17.692Z,17.34
2018-10-11T22:11:48.204Z,17.32
2018-10-11T22:14:18.758Z,17.29
2018-10-11T22:16:49.279Z,17.21
2018-10-11T22:19:19.841Z,17.12
2018-10-11T22:21:50.385Z,17.27
2018-10-11T22:24:20.632Z,17.23
2018-10-11T22:26:51.429Z,17.47
2018-10-11T22:29:21.869Z,17.75
2018-10-11T22:31:52.136Z,17.92
2018-10-11T22:34:22.689Z,17.36
2018-10-11T22:36:53.034Z,16.89
2018-10-11T22:39:23.977Z,16.84
2018-10-11T22:41:54.508Z,16.69
2018-10-11T22:44:25.114Z,17.08
2018-10-11T22:46:55.649Z,17.31
2018-10-11T22:49:26.217Z,17.52
2018-10-11T22:51:56.828Z,17.54
2018-10-11T22:54:27.662Z,17.64
2018-10-11T22:56:58.353Z,17.96
2018-10-11T22:59:28.936Z,18.15
2018-10-11T23:01:59.723Z,18.09
2018-10-11T23:04:30.232Z,18.17
2018-10-11T23:07:01.012Z,18.07
2018-10-11T23:09:31.508Z,17.67
2018-10-11T23:12:02.021Z,17.40
2018-10-11T23:14:32.872Z,17.17
2018-10-11T23:17:03.944Z,16.87
2018-10-11T23:19:34.456Z,16.71
2018-10-11T23:22:05.000Z,16.64
2018-10-11T23:24:35.492Z,16.40
2018-10-11T23:27:06.121Z,16.34
2018-10-11T23:29:36.714Z,16.29
2018-10-11T23:32:07.328Z,16.36
2018-10-11T23:34:38.055Z,16.32
2018-10-11T23:37:09.157Z,16.41
2018-10-11T23:39:39.690Z,16.38
2018-10-11T23:42:10.013Z,16.21
2018-10-11T23:44:40.653Z,16.05
2018-10-11T23:47:11.977Z,15.94
2018-10-11T23:49:42.270Z,15.80
2018-10-11T23:52:12.785Z,15.85
2018-10-11T23:54:43.514Z,15.85
2018-10-11T23:57:14.028Z,15.78
2018-10-11T23:59:44.620Z,15.94
